sensor_id;sensor_type;location;lat;lon;timestamp;P1;durP1;ratioP1;P2;durP2;ratioP2
8230;SDS011;4156;50.908;6.974;2024-03-08T00:01:47;14.17;;;9.70;;
8230;SDS011;4156;50.908;6.974;2024-03-08T00:04:13;16.27;;;10.07;;
8230;SDS011;4156;50.908;6.974;2024-03-08T00:06:40;14.87;;;9.80;;
8230;SDS011;4156;50.908;6.974;2024-03-08T00:09:06;12.40;;;8.93;;
8230;SDS011;4156;50.908;6.974;2024-03-08T00:11:35;15.67;;;10.60;;
8230;SDS011;4156;50.908;6.974;2024-03-08T00:14:01;15.40;;;10.57;;
8230;SDS011;4156;50.908;6.974;2024-03-08T00:16:27;18.97;;;11.60;;
8230;SDS011;4156;50.908;6.974;2024-03-08T00:18:53;15.27;;;10.23;;
8230;SDS011;4156;50.908;6.974;2024-03-08T00:21:19;18.07;;;11.23;;
8230;SDS011;4156;50.908;6.974;2024-03-08T00:23:45;14.37;;;10.50;;
8230;SDS011;4156;50.908;6.974;2024-03-08T00:26:12;13.53;;;10.43;;
8230;SDS011;4156;50.908;6.974;2024-03-08T00:28:37;14.37;;;9.93;;
8230;SDS011;4156;50.908;6.974;2024-03-08T00:31:03;16.23;;;10.17;;
8230;SDS011;4156;50.908;6.974;2024-03-08T00:33:29;14.93;;;10.77;;
8230;SDS011;4156;50.908;6.974;2024-03-08T00:35:55;16.00;;;11.27;;
8230;SDS011;4156;50.908;6.974;2024-03-08T00:38:22;13.23;;;10.20;;
8230;SDS011;4156;50.908;6.974;2024-03-08T00:40:48;13.53;;;9.77;;
8230;SDS011;4156;50.908;6.974;2024-03-08T00:43:14;14.03;;;10.57;;
8230;SDS011;4156;50.908;6.974;2024-03-08T00:45:40;14.37;;;9.43;;
8230;SDS011;4156;50.908;6.974;2024-03-08T00:48:09;18.83;;;11.77;;
8230;SDS011;4156;50.908;6.974;2024-03-08T00:50:36;14.70;;;10.23;;
8230;SDS011;4156;50.908;6.974;2024-03-08T00:53:02;17.60;;;11.00;;
8230;SDS011;4156;50.908;6.974;2024-03-08T00:55:29;17.97;;;11.13;;
8230;SDS011;4156;50.908;6.974;2024-03-08T00:57:55;17.33;;;10.77;;
8230;SDS011;4156;50.908;6.974;2024-03-08T01:00:22;13.80;;;10.53;;
8230;SDS011;4156;50.908;6.974;2024-03-08T01:02:49;13.30;;;10.33;;
8230;SDS011;4156;50.908;6.974;2024-03-08T01:05:14;14.23;;;9.90;;
8230;SDS011;4156;50.908;6.974;2024-03-08T01:07:40;13.73;;;10.73;;
8230;SDS011;4156;50.908;6.974;2024-03-08T01:10:06;16.70;;;12.07;;
8230;SDS011;4156;50.908;6.974;2024-03-08T01:12:34;15.03;;;11.00;;
8230;SDS011;4156;50.908;6.974;2024-03-08T01:15:00;14.63;;;10.57;;
8230;SDS011;4156;50.908;6.974;2024-03-08T01:17:26;14.63;;;9.80;;
8230;SDS011;4156;50.908;6.974;2024-03-08T01:19:52;15.20;;;10.57;;
8230;SDS011;4156;50.908;6.974;2024-03-08T01:22:18;13.43;;;10.23;;
8230;SDS011;4156;50.908;6.974;2024-03-08T01:24:44;17.63;;;10.70;;
8230;SDS011;4156;50.908;6.974;2024-03-08T01:27:10;16.80;;;11.17;;
8230;SDS011;4156;50.908;6.974;2024-03-08T01:29:37;16.40;;;11.20;;
8230;SDS011;4156;50.908;6.974;2024-03-08T01:32:03;16.53;;;11.57;;
8230;SDS011;4156;50.908;6.974;2024-03-08T01:34:29;15.47;;;10.17;;
8230;SDS011;4156;50.908;6.974;2024-03-08T01:36:55;18.37;;;11.30;;
8230;SDS011;4156;50.908;6.974;2024-03-08T01:39:21;18.17;;;10.70;;
8230;SDS011;4156;50.908;6.974;2024-03-08T01:41:47;17.07;;;11.00;;
8230;SDS011;4156;50.908;6.974;2024-03-08T01:44:13;17.93;;;11.20;;
8230;SDS011;4156;50.908;6.974;2024-03-08T01:46:43;16.27;;;10.70;;
8230;SDS011;4156;50.908;6.974;2024-03-08T01:49:10;17.67;;;10.80;;
8230;SDS011;4156;50.908;6.974;2024-03-08T01:51:36;16.53;;;11.23;;
8230;SDS011;4156;50.908;6.974;2024-03-08T01:54:02;15.23;;;11.03;;
8230;SDS011;4156;50.908;6.974;2024-03-08T01:56:29;20.57;;;11.33;;
8230;SDS011;4156;50.908;6.974;2024-03-08T01:58:56;15.60;;;11.07;;
8230;SDS011;4156;50.908;6.974;2024-03-08T02:01:23;15.07;;;10.33;;
8230;SDS011;4156;50.908;6.974;2024-03-08T02:03:49;15.13;;;10.93;;
8230;SDS011;4156;50.908;6.974;2024-03-08T02:06:15;16.57;;;11.07;;
8230;SDS011;4156;50.908;6.974;2024-03-08T02:08:45;17.33;;;11.60;;
8230;SDS011;4156;50.908;6.974;2024-03-08T02:11:11;15.80;;;10.40;;
8230;SDS011;4156;50.908;6.974;2024-03-08T02:13:37;16.87;;;11.00;;
8230;SDS011;4156;50.908;6.974;2024-03-08T02:16:04;16.10;;;10.37;;
8230;SDS011;4156;50.908;6.974;2024-03-08T02:18:32;13.77;;;10.40;;
8230;SDS011;4156;50.908;6.974;2024-03-08T02:20:59;14.73;;;10.87;;
8230;SDS011;4156;50.908;6.974;2024-03-08T02:23:26;15.83;;;10.70;;
8230;SDS011;4156;50.908;6.974;2024-03-08T02:25:52;17.87;;;11.83;;
8230;SDS011;4156;50.908;6.974;2024-03-08T02:28:19;14.80;;;9.97;;
8230;SDS011;4156;50.908;6.974;2024-03-08T02:30:45;17.07;;;10.73;;
8230;SDS011;4156;50.908;6.974;2024-03-08T02:33:13;15.37;;;10.23;;
8230;SDS011;4156;50.908;6.974;2024-03-08T02:35:41;18.20;;;12.03;;
8230;SDS011;4156;50.908;6.974;2024-03-08T02:38:10;14.90;;;10.13;;
8230;SDS011;4156;50.908;6.974;2024-03-08T02:40:36;20.00;;;12.03;;
8230;SDS011;4156;50.908;6.974;2024-03-08T02:43:02;20.67;;;12.17;;
8230;SDS011;4156;50.908;6.974;2024-03-08T02:45:29;15.60;;;11.10;;
8230;SDS011;4156;50.908;6.974;2024-03-08T02:47:55;17.50;;;11.37;;
8230;SDS011;4156;50.908;6.974;2024-03-08T02:50:21;18.47;;;10.90;;
8230;SDS011;4156;50.908;6.974;2024-03-08T02:52:48;18.47;;;11.30;;
8230;SDS011;4156;50.908;6.974;2024-03-08T02:55:14;18.70;;;12.07;;
8230;SDS011;4156;50.908;6.974;2024-03-08T02:57:41;18.30;;;11.80;;
8230;SDS011;4156;50.908;6.974;2024-03-08T03:00:08;17.93;;;12.53;;
8230;SDS011;4156;50.908;6.974;2024-03-08T03:02:34;17.67;;;10.73;;
8230;SDS011;4156;50.908;6.974;2024-03-08T03:05:00;15.63;;;11.33;;
8230;SDS011;4156;50.908;6.974;2024-03-08T03:07:30;18.30;;;11.43;;
8230;SDS011;4156;50.908;6.974;2024-03-08T03:09:56;18.00;;;11.37;;
8230;SDS011;4156;50.908;6.974;2024-03-08T03:12:22;16.33;;;11.23;;
8230;SDS011;4156;50.908;6.974;2024-03-08T03:14:48;16.67;;;10.50;;
8230;SDS011;4156;50.908;6.974;2024-03-08T03:17:14;15.33;;;10.63;;
8230;SDS011;4156;50.908;6.974;2024-03-08T03:19:41;16.10;;;10.73;;
8230;SDS011;4156;50.908;6.974;2024-03-08T03:22:07;16.03;;;10.97;;
8230;SDS011;4156;50.908;6.974;2024-03-08T03:24:35;18.00;;;11.27;;
8230;SDS011;4156;50.908;6.974;2024-03-08T03:27:03;16.13;;;11.33;;
8230;SDS011;4156;50.908;6.974;2024-03-08T03:29:35;13.70;;;10.33;;
8230;SDS011;4156;50.908;6.974;2024-03-08T03:32:01;18.93;;;11.30;;
8230;SDS011;4156;50.908;6.974;2024-03-08T03:34:29;14.80;;;10.40;;
8230;SDS011;4156;50.908;6.974;2024-03-08T03:36:55;20.13;;;11.90;;
8230;SDS011;4156;50.908;6.974;2024-03-08T03:39:21;15.57;;;11.07;;
8230;SDS011;4156;50.908;6.974;2024-03-08T03:41:48;16.93;;;11.30;;
8230;SDS011;4156;50.908;6.974;2024-03-08T03:44:17;17.13;;;11.17;;
8230;SDS011;4156;50.908;6.974;2024-03-08T03:46:43;17.23;;;11.77;;
8230;SDS011;4156;50.908;6.974;2024-03-08T03:49:09;17.67;;;11.40;;
8230;SDS011;4156;50.908;6.974;2024-03-08T03:51:35;18.70;;;11.53;;
8230;SDS011;4156;50.908;6.974;2024-03-08T03:54:01;14.53;;;10.93;;
8230;SDS011;4156;50.908;6.974;2024-03-08T03:56:28;16.80;;;10.30;;
8230;SDS011;4156;50.908;6.974;2024-03-08T03:58:55;15.10;;;11.17;;
8230;SDS011;4156;50.908;6.974;2024-03-08T04:01:21;19.10;;;13.03;;
8230;SDS011;4156;50.908;6.974;2024-03-08T04:03:48;15.20;;;10.87;;
8230;SDS011;4156;50.908;6.974;2024-03-08T04:06:14;16.90;;;11.77;;
8230;SDS011;4156;50.908;6.974;2024-03-08T04:08:40;16.77;;;11.33;;
8230;SDS011;4156;50.908;6.974;2024-03-08T04:11:06;16.00;;;10.67;;
8230;SDS011;4156;50.908;6.974;2024-03-08T04:13:33;21.83;;;11.97;;
8230;SDS011;4156;50.908;6.974;2024-03-08T04:15:59;19.57;;;11.63;;
8230;SDS011;4156;50.908;6.974;2024-03-08T04:18:25;17.87;;;11.47;;
8230;SDS011;4156;50.908;6.974;2024-03-08T04:20:51;17.33;;;11.07;;
8230;SDS011;4156;50.908;6.974;2024-03-08T04:23:17;16.00;;;11.03;;
8230;SDS011;4156;50.908;6.974;2024-03-08T04:25:44;18.37;;;10.27;;
8230;SDS011;4156;50.908;6.974;2024-03-08T04:28:10;18.17;;;11.67;;
8230;SDS011;4156;50.908;6.974;2024-03-08T04:30:39;16.57;;;11.00;;
8230;SDS011;4156;50.908;6.974;2024-03-08T04:33:05;17.87;;;11.60;;
8230;SDS011;4156;50.908;6.974;2024-03-08T04:35:34;17.60;;;11.00;;
8230;SDS011;4156;50.908;6.974;2024-03-08T04:38:00;17.17;;;11.20;;
8230;SDS011;4156;50.908;6.974;2024-03-08T04:40:26;15.53;;;11.30;;
8230;SDS011;4156;50.908;6.974;2024-03-08T04:42:52;16.20;;;10.73;;
8230;SDS011;4156;50.908;6.974;2024-03-08T04:45:18;18.67;;;10.77;;
8230;SDS011;4156;50.908;6.974;2024-03-08T04:47:44;17.60;;;11.17;;
8230;SDS011;4156;50.908;6.974;2024-03-08T04:50:10;20.20;;;12.20;;
8230;SDS011;4156;50.908;6.974;2024-03-08T04:52:36;18.77;;;11.70;;
8230;SDS011;4156;50.908;6.974;2024-03-08T04:55:02;18.13;;;11.57;;
8230;SDS011;4156;50.908;6.974;2024-03-08T04:57:31;18.07;;;10.93;;
8230;SDS011;4156;50.908;6.974;2024-03-08T04:59:57;17.43;;;10.97;;
8230;SDS011;4156;50.908;6.974;2024-03-08T05:02:24;16.77;;;10.87;;
8230;SDS011;4156;50.908;6.974;2024-03-08T05:04:50;19.10;;;11.50;;
8230;SDS011;4156;50.908;6.974;2024-03-08T05:07:16;18.83;;;12.03;;
8230;SDS011;4156;50.908;6.974;2024-03-08T05:09:42;16.93;;;11.37;;
8230;SDS011;4156;50.908;6.974;2024-03-08T05:12:08;16.57;;;11.10;;
8230;SDS011;4156;50.908;6.974;2024-03-08T05:14:34;15.47;;;11.10;;
8230;SDS011;4156;50.908;6.974;2024-03-08T05:17:00;17.10;;;11.53;;
8230;SDS011;4156;50.908;6.974;2024-03-08T05:19:26;18.10;;;11.37;;
8230;SDS011;4156;50.908;6.974;2024-03-08T05:21:52;16.47;;;11.03;;
8230;SDS011;4156;50.908;6.974;2024-03-08T05:24:18;15.37;;;10.53;;
8230;SDS011;4156;50.908;6.974;2024-03-08T05:26:44;17.20;;;11.27;;
8230;SDS011;4156;50.908;6.974;2024-03-08T05:29:11;16.50;;;11.07;;
8230;SDS011;4156;50.908;6.974;2024-03-08T05:31:45;18.03;;;11.77;;
8230;SDS011;4156;50.908;6.974;2024-03-08T05:34:13;16.13;;;11.47;;
8230;SDS011;4156;50.908;6.974;2024-03-08T05:36:39;18.93;;;11.83;;
8230;SDS011;4156;50.908;6.974;2024-03-08T05:39:05;17.67;;;11.63;;
8230;SDS011;4156;50.908;6.974;2024-03-08T05:41:32;19.07;;;12.17;;
8230;SDS011;4156;50.908;6.974;2024-03-08T05:43:58;18.17;;;11.57;;
8230;SDS011;4156;50.908;6.974;2024-03-08T05:46:24;17.33;;;11.40;;
8230;SDS011;4156;50.908;6.974;2024-03-08T05:48:50;19.50;;;11.93;;
8230;SDS011;4156;50.908;6.974;2024-03-08T05:51:16;19.87;;;11.97;;
8230;SDS011;4156;50.908;6.974;2024-03-08T05:53:42;19.30;;;12.10;;
8230;SDS011;4156;50.908;6.974;2024-03-08T05:56:08;19.70;;;12.70;;
8230;SDS011;4156;50.908;6.974;2024-03-08T05:58:34;20.13;;;12.53;;
8230;SDS011;4156;50.908;6.974;2024-03-08T06:01:00;18.20;;;12.13;;
8230;SDS011;4156;50.908;6.974;2024-03-08T06:03:26;17.23;;;11.70;;
8230;SDS011;4156;50.908;6.974;2024-03-08T06:05:52;20.63;;;12.13;;
8230;SDS011;4156;50.908;6.974;2024-03-08T06:08:18;18.63;;;12.50;;
8230;SDS011;4156;50.908;6.974;2024-03-08T06:10:44;22.10;;;12.97;;
8230;SDS011;4156;50.908;6.974;2024-03-08T06:13:11;15.73;;;10.47;;
8230;SDS011;4156;50.908;6.974;2024-03-08T06:15:37;18.73;;;12.13;;
8230;SDS011;4156;50.908;6.974;2024-03-08T06:18:03;19.10;;;12.67;;
8230;SDS011;4156;50.908;6.974;2024-03-08T06:20:30;19.97;;;12.17;;
8230;SDS011;4156;50.908;6.974;2024-03-08T06:22:56;17.63;;;11.97;;
8230;SDS011;4156;50.908;6.974;2024-03-08T06:25:22;20.43;;;12.17;;
8230;SDS011;4156;50.908;6.974;2024-03-08T06:27:48;21.17;;;13.57;;
8230;SDS011;4156;50.908;6.974;2024-03-08T06:30:14;20.40;;;12.00;;
8230;SDS011;4156;50.908;6.974;2024-03-08T06:32:41;19.37;;;12.70;;
8230;SDS011;4156;50.908;6.974;2024-03-08T06:35:07;18.97;;;13.00;;
8230;SDS011;4156;50.908;6.974;2024-03-08T06:37:35;18.27;;;12.40;;
8230;SDS011;4156;50.908;6.974;2024-03-08T06:40:01;20.20;;;13.40;;
8230;SDS011;4156;50.908;6.974;2024-03-08T06:42:33;16.97;;;11.07;;
8230;SDS011;4156;50.908;6.974;2024-03-08T06:45:00;21.67;;;12.73;;
8230;SDS011;4156;50.908;6.974;2024-03-08T06:47:30;21.43;;;13.33;;
8230;SDS011;4156;50.908;6.974;2024-03-08T06:49:56;17.80;;;12.03;;
8230;SDS011;4156;50.908;6.974;2024-03-08T06:52:22;20.13;;;12.20;;
8230;SDS011;4156;50.908;6.974;2024-03-08T06:54:48;18.73;;;12.90;;
8230;SDS011;4156;50.908;6.974;2024-03-08T06:57:14;19.17;;;11.73;;
8230;SDS011;4156;50.908;6.974;2024-03-08T06:59:41;18.30;;;11.93;;
8230;SDS011;4156;50.908;6.974;2024-03-08T07:02:07;17.10;;;11.70;;
8230;SDS011;4156;50.908;6.974;2024-03-08T07:04:34;20.47;;;12.90;;
8230;SDS011;4156;50.908;6.974;2024-03-08T07:07:03;17.80;;;11.17;;
8230;SDS011;4156;50.908;6.974;2024-03-08T07:09:29;21.43;;;12.53;;
8230;SDS011;4156;50.908;6.974;2024-03-08T07:11:55;18.47;;;11.53;;
8230;SDS011;4156;50.908;6.974;2024-03-08T07:14:24;20.10;;;13.00;;
8230;SDS011;4156;50.908;6.974;2024-03-08T07:16:50;18.50;;;12.07;;
8230;SDS011;4156;50.908;6.974;2024-03-08T07:19:16;18.13;;;12.30;;
8230;SDS011;4156;50.908;6.974;2024-03-08T07:21:45;23.70;;;13.20;;
8230;SDS011;4156;50.908;6.974;2024-03-08T07:24:12;19.43;;;13.40;;
8230;SDS011;4156;50.908;6.974;2024-03-08T07:26:41;19.27;;;12.10;;
8230;SDS011;4156;50.908;6.974;2024-03-08T07:29:07;19.27;;;13.40;;
8230;SDS011;4156;50.908;6.974;2024-03-08T07:31:33;19.13;;;12.10;;
8230;SDS011;4156;50.908;6.974;2024-03-08T07:34:02;19.60;;;12.17;;
8230;SDS011;4156;50.908;6.974;2024-03-08T07:36:28;15.97;;;11.37;;
8230;SDS011;4156;50.908;6.974;2024-03-08T07:38:54;21.07;;;11.90;;
8230;SDS011;4156;50.908;6.974;2024-03-08T07:41:20;17.47;;;12.23;;
8230;SDS011;4156;50.908;6.974;2024-03-08T07:43:47;17.93;;;11.93;;
8230;SDS011;4156;50.908;6.974;2024-03-08T07:46:13;16.70;;;12.07;;
8230;SDS011;4156;50.908;6.974;2024-03-08T07:48:39;20.00;;;13.33;;
8230;SDS011;4156;50.908;6.974;2024-03-08T07:51:05;18.10;;;12.50;;
8230;SDS011;4156;50.908;6.974;2024-03-08T07:53:34;21.17;;;13.77;;
8230;SDS011;4156;50.908;6.974;2024-03-08T07:56:00;17.50;;;11.47;;
8230;SDS011;4156;50.908;6.974;2024-03-08T07:58:26;20.97;;;12.60;;
8230;SDS011;4156;50.908;6.974;2024-03-08T08:00:53;19.40;;;12.00;;
8230;SDS011;4156;50.908;6.974;2024-03-08T08:03:19;18.73;;;11.73;;
8230;SDS011;4156;50.908;6.974;2024-03-08T08:05:45;18.17;;;11.87;;
8230;SDS011;4156;50.908;6.974;2024-03-08T08:08:11;19.43;;;12.80;;
8230;SDS011;4156;50.908;6.974;2024-03-08T08:10:37;16.80;;;11.00;;
8230;SDS011;4156;50.908;6.974;2024-03-08T08:13:03;19.10;;;11.87;;
8230;SDS011;4156;50.908;6.974;2024-03-08T08:15:30;21.43;;;13.20;;
8230;SDS011;4156;50.908;6.974;2024-03-08T08:17:56;20.97;;;11.87;;
8230;SDS011;4156;50.908;6.974;2024-03-08T08:20:21;17.53;;;11.27;;
8230;SDS011;4156;50.908;6.974;2024-03-08T08:22:48;19.10;;;11.23;;
8230;SDS011;4156;50.908;6.974;2024-03-08T08:25:14;19.13;;;11.23;;
8230;SDS011;4156;50.908;6.974;2024-03-08T08:27:40;17.67;;;11.83;;
8230;SDS011;4156;50.908;6.974;2024-03-08T08:30:10;15.53;;;11.43;;
8230;SDS011;4156;50.908;6.974;2024-03-08T08:32:36;19.00;;;12.10;;
8230;SDS011;4156;50.908;6.974;2024-03-08T08:35:02;20.70;;;12.70;;
8230;SDS011;4156;50.908;6.974;2024-03-08T08:37:30;18.87;;;11.87;;
8230;SDS011;4156;50.908;6.974;2024-03-08T08:39:56;16.43;;;10.90;;
8230;SDS011;4156;50.908;6.974;2024-03-08T08:42:22;13.83;;;10.47;;
8230;SDS011;4156;50.908;6.974;2024-03-08T08:44:48;15.47;;;10.20;;
8230;SDS011;4156;50.908;6.974;2024-03-08T08:47:15;15.13;;;10.67;;
8230;SDS011;4156;50.908;6.974;2024-03-08T08:49:43;16.50;;;11.60;;
8230;SDS011;4156;50.908;6.974;2024-03-08T08:52:11;17.63;;;11.27;;
8230;SDS011;4156;50.908;6.974;2024-03-08T08:54:37;17.80;;;10.37;;
8230;SDS011;4156;50.908;6.974;2024-03-08T08:57:03;16.57;;;10.77;;
8230;SDS011;4156;50.908;6.974;2024-03-08T08:59:35;17.10;;;10.93;;
8230;SDS011;4156;50.908;6.974;2024-03-08T09:02:04;16.33;;;10.63;;
8230;SDS011;4156;50.908;6.974;2024-03-08T09:04:30;13.87;;;10.83;;
8230;SDS011;4156;50.908;6.974;2024-03-08T09:06:56;17.57;;;10.33;;
8230;SDS011;4156;50.908;6.974;2024-03-08T09:09:22;16.33;;;10.90;;
8230;SDS011;4156;50.908;6.974;2024-03-08T09:11:50;15.20;;;10.20;;
8230;SDS011;4156;50.908;6.974;2024-03-08T09:14:16;19.07;;;10.53;;
8230;SDS011;4156;50.908;6.974;2024-03-08T09:16:42;16.30;;;10.30;;
8230;SDS011;4156;50.908;6.974;2024-03-08T09:19:08;16.23;;;11.00;;
8230;SDS011;4156;50.908;6.974;2024-03-08T09:21:35;16.37;;;10.60;;
8230;SDS011;4156;50.908;6.974;2024-03-08T09:24:02;20.83;;;11.23;;
8230;SDS011;4156;50.908;6.974;2024-03-08T09:26:28;16.80;;;10.40;;
8230;SDS011;4156;50.908;6.974;2024-03-08T09:28:54;15.97;;;10.63;;
8230;SDS011;4156;50.908;6.974;2024-03-08T09:31:20;15.40;;;10.23;;
8230;SDS011;4156;50.908;6.974;2024-03-08T09:33:46;14.63;;;10.50;;
8230;SDS011;4156;50.908;6.974;2024-03-08T09:36:12;13.53;;;9.50;;
8230;SDS011;4156;50.908;6.974;2024-03-08T09:38:39;15.00;;;10.03;;
8230;SDS011;4156;50.908;6.974;2024-03-08T09:41:05;14.97;;;10.17;;
8230;SDS011;4156;50.908;6.974;2024-03-08T09:43:31;15.67;;;11.27;;
8230;SDS011;4156;50.908;6.974;2024-03-08T09:45:57;13.90;;;9.30;;
8230;SDS011;4156;50.908;6.974;2024-03-08T09:48:23;13.00;;;9.33;;
8230;SDS011;4156;50.908;6.974;2024-03-08T09:50:50;14.73;;;9.70;;
8230;SDS011;4156;50.908;6.974;2024-03-08T09:53:16;12.70;;;8.53;;
8230;SDS011;4156;50.908;6.974;2024-03-08T09:55:43;13.70;;;8.87;;
8230;SDS011;4156;50.908;6.974;2024-03-08T09:58:14;12.27;;;8.80;;
8230;SDS011;4156;50.908;6.974;2024-03-08T10:00:52;15.03;;;9.80;;
8230;SDS011;4156;50.908;6.974;2024-03-08T10:03:21;13.90;;;7.83;;
8230;SDS011;4156;50.908;6.974;2024-03-08T10:05:47;12.80;;;9.13;;
8230;SDS011;4156;50.908;6.974;2024-03-08T10:08:13;12.90;;;8.03;;
8230;SDS011;4156;50.908;6.974;2024-03-08T10:10:39;14.10;;;8.57;;
8230;SDS011;4156;50.908;6.974;2024-03-08T10:13:09;10.80;;;7.37;;
8230;SDS011;4156;50.908;6.974;2024-03-08T10:15:37;11.87;;;8.07;;
8230;SDS011;4156;50.908;6.974;2024-03-08T10:18:05;10.63;;;7.40;;
8230;SDS011;4156;50.908;6.974;2024-03-08T10:20:31;10.87;;;7.53;;
8230;SDS011;4156;50.908;6.974;2024-03-08T10:22:59;12.53;;;7.70;;
8230;SDS011;4156;50.908;6.974;2024-03-08T10:25:25;9.83;;;6.73;;
8230;SDS011;4156;50.908;6.974;2024-03-08T10:27:51;10.23;;;7.50;;
8230;SDS011;4156;50.908;6.974;2024-03-08T10:30:17;11.00;;;7.10;;
8230;SDS011;4156;50.908;6.974;2024-03-08T10:32:46;9.73;;;6.80;;
8230;SDS011;4156;50.908;6.974;2024-03-08T10:35:12;7.43;;;5.47;;
8230;SDS011;4156;50.908;6.974;2024-03-08T10:40:13;9.00;;;6.70;;
8230;SDS011;4156;50.908;6.974;2024-03-08T10:42:46;10.03;;;7.60;;
8230;SDS011;4156;50.908;6.974;2024-03-08T10:48:03;10.67;;;6.77;;
8230;SDS011;4156;50.908;6.974;2024-03-08T10:50:30;8.50;;;6.23;;
8230;SDS011;4156;50.908;6.974;2024-03-08T10:52:59;11.00;;;6.13;;
8230;SDS011;4156;50.908;6.974;2024-03-08T10:55:26;9.00;;;6.73;;
8230;SDS011;4156;50.908;6.974;2024-03-08T10:57:53;11.03;;;7.03;;
8230;SDS011;4156;50.908;6.974;2024-03-08T11:00:19;10.53;;;6.77;;
8230;SDS011;4156;50.908;6.974;2024-03-08T11:02:52;9.30;;;6.37;;
8230;SDS011;4156;50.908;6.974;2024-03-08T11:05:40;11.27;;;7.03;;
8230;SDS011;4156;50.908;6.974;2024-03-08T11:08:16;10.13;;;7.07;;
8230;SDS011;4156;50.908;6.974;2024-03-08T11:10:51;10.17;;;6.57;;
8230;SDS011;4156;50.908;6.974;2024-03-08T11:13:32;9.07;;;6.63;;
8230;SDS011;4156;50.908;6.974;2024-03-08T11:15:59;8.63;;;6.63;;
8230;SDS011;4156;50.908;6.974;2024-03-08T11:18:26;9.57;;;6.67;;
8230;SDS011;4156;50.908;6.974;2024-03-08T11:20:55;10.00;;;6.70;;
8230;SDS011;4156;50.908;6.974;2024-03-08T11:23:22;9.17;;;6.70;;
8230;SDS011;4156;50.908;6.974;2024-03-08T11:25:50;9.17;;;6.70;;
8230;SDS011;4156;50.908;6.974;2024-03-08T11:28:20;10.83;;;6.20;;
8230;SDS011;4156;50.908;6.974;2024-03-08T11:33:29;10.27;;;7.13;;
8230;SDS011;4156;50.908;6.974;2024-03-08T11:38:45;9.33;;;6.90;;
8230;SDS011;4156;50.908;6.974;2024-03-08T11:41:17;9.20;;;6.93;;
8230;SDS011;4156;50.908;6.974;2024-03-08T11:43:45;11.90;;;7.37;;
8230;SDS011;4156;50.908;6.974;2024-03-08T11:46:11;9.53;;;6.70;;
8230;SDS011;4156;50.908;6.974;2024-03-08T11:48:37;11.20;;;6.87;;
8230;SDS011;4156;50.908;6.974;2024-03-08T11:51:04;12.37;;;7.37;;
8230;SDS011;4156;50.908;6.974;2024-03-08T11:53:30;10.00;;;7.30;;
8230;SDS011;4156;50.908;6.974;2024-03-08T11:56:05;9.97;;;6.63;;
8230;SDS011;4156;50.908;6.974;2024-03-08T11:58:31;11.63;;;6.57;;
8230;SDS011;4156;50.908;6.974;2024-03-08T12:01:04;10.27;;;7.20;;
8230;SDS011;4156;50.908;6.974;2024-03-08T12:03:40;9.50;;;7.40;;
8230;SDS011;4156;50.908;6.974;2024-03-08T12:06:10;12.80;;;6.80;;
8230;SDS011;4156;50.908;6.974;2024-03-08T12:08:36;12.83;;;7.00;;
8230;SDS011;4156;50.908;6.974;2024-03-08T12:11:05;10.33;;;6.93;;
8230;SDS011;4156;50.908;6.974;2024-03-08T12:13:32;10.43;;;7.20;;
8230;SDS011;4156;50.908;6.974;2024-03-08T12:15:59;10.47;;;7.63;;
8230;SDS011;4156;50.908;6.974;2024-03-08T12:18:25;10.03;;;7.23;;
8230;SDS011;4156;50.908;6.974;2024-03-08T12:21:03;12.67;;;7.33;;
8230;SDS011;4156;50.908;6.974;2024-03-08T12:23:29;9.60;;;6.97;;
8230;SDS011;4156;50.908;6.974;2024-03-08T12:25:55;8.13;;;6.70;;
8230;SDS011;4156;50.908;6.974;2024-03-08T12:28:22;9.53;;;7.33;;
8230;SDS011;4156;50.908;6.974;2024-03-08T12:30:48;10.40;;;6.57;;
8230;SDS011;4156;50.908;6.974;2024-03-08T12:33:16;10.67;;;6.60;;
8230;SDS011;4156;50.908;6.974;2024-03-08T12:35:50;11.27;;;6.57;;
8230;SDS011;4156;50.908;6.974;2024-03-08T12:38:18;10.47;;;6.90;;
8230;SDS011;4156;50.908;6.974;2024-03-08T12:40:44;10.90;;;6.47;;
8230;SDS011;4156;50.908;6.974;2024-03-08T12:43:10;11.07;;;6.80;;
8230;SDS011;4156;50.908;6.974;2024-03-08T12:45:37;8.60;;;6.53;;
8230;SDS011;4156;50.908;6.974;2024-03-08T12:48:03;10.07;;;6.83;;
8230;SDS011;4156;50.908;6.974;2024-03-08T12:50:29;9.00;;;6.63;;
8230;SDS011;4156;50.908;6.974;2024-03-08T12:52:55;9.90;;;6.20;;
8230;SDS011;4156;50.908;6.974;2024-03-08T12:55:22;9.20;;;6.83;;
8230;SDS011;4156;50.908;6.974;2024-03-08T12:57:48;9.37;;;6.87;;
8230;SDS011;4156;50.908;6.974;2024-03-08T13:00:14;12.77;;;6.70;;
8230;SDS011;4156;50.908;6.974;2024-03-08T13:02:48;10.97;;;6.80;;
8230;SDS011;4156;50.908;6.974;2024-03-08T13:05:16;10.20;;;6.83;;
8230;SDS011;4156;50.908;6.974;2024-03-08T13:07:42;8.17;;;5.93;;
8230;SDS011;4156;50.908;6.974;2024-03-08T13:10:14;8.57;;;6.40;;
8230;SDS011;4156;50.908;6.974;2024-03-08T13:12:43;8.43;;;6.47;;
8230;SDS011;4156;50.908;6.974;2024-03-08T13:15:09;9.27;;;6.40;;
8230;SDS011;4156;50.908;6.974;2024-03-08T13:17:45;9.67;;;6.57;;
8230;SDS011;4156;50.908;6.974;2024-03-08T13:20:12;8.73;;;6.27;;
8230;SDS011;4156;50.908;6.974;2024-03-08T13:22:43;8.83;;;6.60;;
8230;SDS011;4156;50.908;6.974;2024-03-08T13:25:09;8.83;;;6.93;;
8230;SDS011;4156;50.908;6.974;2024-03-08T13:27:38;10.73;;;7.00;;
8230;SDS011;4156;50.908;6.974;2024-03-08T13:30:06;8.77;;;6.17;;
8230;SDS011;4156;50.908;6.974;2024-03-08T13:32:32;10.90;;;7.10;;
8230;SDS011;4156;50.908;6.974;2024-03-08T13:34:58;9.53;;;6.70;;
8230;SDS011;4156;50.908;6.974;2024-03-08T13:37:24;7.30;;;5.47;;
8230;SDS011;4156;50.908;6.974;2024-03-08T13:39:51;8.67;;;6.70;;
8230;SDS011;4156;50.908;6.974;2024-03-08T13:42:18;7.80;;;5.80;;
8230;SDS011;4156;50.908;6.974;2024-03-08T13:44:47;9.23;;;6.60;;
8230;SDS011;4156;50.908;6.974;2024-03-08T13:47:14;7.07;;;5.20;;
8230;SDS011;4156;50.908;6.974;2024-03-08T13:49:41;9.77;;;7.37;;
8230;SDS011;4156;50.908;6.974;2024-03-08T13:52:08;7.27;;;5.23;;
8230;SDS011;4156;50.908;6.974;2024-03-08T13:54:35;9.07;;;6.43;;
8230;SDS011;4156;50.908;6.974;2024-03-08T13:57:01;7.53;;;5.50;;
8230;SDS011;4156;50.908;6.974;2024-03-08T13:59:29;7.73;;;5.87;;
8230;SDS011;4156;50.908;6.974;2024-03-08T14:01:57;9.20;;;5.90;;
8230;SDS011;4156;50.908;6.974;2024-03-08T14:04:24;9.07;;;6.07;;
8230;SDS011;4156;50.908;6.974;2024-03-08T14:06:51;9.07;;;5.97;;
8230;SDS011;4156;50.908;6.974;2024-03-08T14:09:25;7.67;;;5.70;;
8230;SDS011;4156;50.908;6.974;2024-03-08T14:11:54;9.87;;;6.30;;
8230;SDS011;4156;50.908;6.974;2024-03-08T14:14:21;8.17;;;5.90;;
8230;SDS011;4156;50.908;6.974;2024-03-08T14:16:48;8.10;;;5.80;;
8230;SDS011;4156;50.908;6.974;2024-03-08T14:19:17;7.83;;;6.07;;
8230;SDS011;4156;50.908;6.974;2024-03-08T14:21:43;8.70;;;6.23;;
8230;SDS011;4156;50.908;6.974;2024-03-08T14:24:09;9.00;;;6.10;;
8230;SDS011;4156;50.908;6.974;2024-03-08T14:26:35;8.70;;;6.13;;
8230;SDS011;4156;50.908;6.974;2024-03-08T14:29:03;8.57;;;6.17;;
8230;SDS011;4156;50.908;6.974;2024-03-08T14:31:30;7.77;;;5.40;;
8230;SDS011;4156;50.908;6.974;2024-03-08T14:33:56;8.70;;;5.97;;
8230;SDS011;4156;50.908;6.974;2024-03-08T14:36:23;10.63;;;6.37;;
8230;SDS011;4156;50.908;6.974;2024-03-08T14:38:50;7.90;;;5.83;;
8230;SDS011;4156;50.908;6.974;2024-03-08T14:41:17;9.77;;;6.87;;
8230;SDS011;4156;50.908;6.974;2024-03-08T14:43:43;8.97;;;6.13;;
8230;SDS011;4156;50.908;6.974;2024-03-08T14:46:10;8.67;;;6.73;;
8230;SDS011;4156;50.908;6.974;2024-03-08T14:48:41;9.87;;;6.53;;
8230;SDS011;4156;50.908;6.974;2024-03-08T14:51:07;10.37;;;7.00;;
8230;SDS011;4156;50.908;6.974;2024-03-08T14:53:36;10.23;;;6.50;;
8230;SDS011;4156;50.908;6.974;2024-03-08T14:56:05;11.40;;;6.43;;
8230;SDS011;4156;50.908;6.974;2024-03-08T14:58:31;8.23;;;5.77;;
8230;SDS011;4156;50.908;6.974;2024-03-08T15:00:58;8.43;;;5.80;;
8230;SDS011;4156;50.908;6.974;2024-03-08T15:03:25;10.03;;;6.67;;
8230;SDS011;4156;50.908;6.974;2024-03-08T15:05:51;9.67;;;5.97;;